Time;durP1;ratioP1;P1;durP2;ratioP2;P2;SDS_P1;SDS_P2;PMS_P1;PMS_P2;Temp;Humidity;BMP_temperature;BMP_pressure;BME280_temperature;BME280_humidity;BME280_pressure;Samples;Min_cycle;Max_cycle;Signal;HPM_P1;HPM_P2
2023/01/09 00:00:16;;;;;;;37.73;16.75;;;;;;;-9.24;63.38;102356.01;1702087;84;21212;-56
2023/01/09 00:03:23;;;;;;;33.80;16.17;;;;;;;-9.25;63.64;102359.56;1741991;82;21749;-56
2023/01/09 00:06:28;;;;;;;35.05;15.55;;;;;;;-9.25;63.64;102359.56;1702226;84;21285;-56
2023/01/09 00:09:34;;;;;;;35.83;15.88;;;;;;;-9.19;63.68;102354.66;1739290;82;21236;-56
2023/01/09 00:12:39;;;;;;;36.83;16.42;;;;;;;-9.18;63.74;102352.47;1776733;80;21359;-56
2023/01/09 00:15:47;;;;;;;37.78;18.12;;;;;;;-9.19;63.67;102346.70;1738464;82;21177;-55
2023/01/09 00:18:55;;;;;;;34.20;15.70;;;;;;;-9.32;63.67;102343.22;1742640;81;21552;-56
2023/01/09 00:22:01;;;;;;;29.87;15.25;;;;;;;-9.32;63.67;102343.22;1731844;81;21217;-56
2023/01/09 00:25:08;;;;;;;36.00;15.48;;;;;;;-9.28;63.62;102344.98;1711079;82;21229;-56
2023/01/09 00:28:14;;;;;;;36.05;16.48;;;;;;;-9.27;63.59;102349.86;1776449;80;21263;-57
2023/01/09 00:31:20;;;;;;;34.65;16.25;;;;;;;-9.26;63.54;102344.55;1738563;82;21220;-56
2023/01/09 00:34:26;;;;;;;32.65;16.67;;;;;;;-9.21;63.66;102345.39;1742089;81;21363;-56
2023/01/09 00:37:31;;;;;;;43.25;17.50;;;;;;;-9.18;63.63;102341.87;1731218;82;21257;-57
2023/01/09 00:40:37;;;;;;;36.80;18.80;;;;;;;-9.17;63.49;102338.31;1711074;83;21252;-56
2023/01/09 00:43:56;;;;;;;40.12;17.95;;;;;;;-9.13;63.62;102348.91;1739662;82;21224;-56
2023/01/09 00:47:06;;;;;;;38.20;18.42;;;;;;;-9.03;63.69;102344.45;1711731;83;21244;-56
2023/01/09 00:50:16;;;;;;;38.73;18.27;;;;;;;-9.00;63.65;102355.94;1776744;80;21180;-55
2023/01/09 00:53:24;;;;;;;49.98;20.60;;;;;;;-8.96;63.53;102362.13;1741824;81;21208;-57
2023/01/09 00:56:32;;;;;;;41.68;19.00;;;;;;;-8.95;63.47;102346.20;1731547;82;21209;-56
2023/01/09 00:59:38;;;;;;;62.38;21.48;;;;;;;-8.94;63.42;102345.30;1711064;84;21213;-56
2023/01/09 01:02:44;;;;;;;54.08;20.40;;;;;;;-9.04;63.35;102341.38;1737024;82;21222;-56
2023/01/09 01:09:18;;;;;;;42.67;18.15;;;;;;;-9.13;63.27;102339.63;1766188;81;21204;-55
2023/01/09 01:12:24;;;;;;;38.15;17.60;;;;;;;-9.11;63.28;102329.01;1695443;83;21437;-56
2023/01/09 01:15:31;;;;;;;43.08;18.60;;;;;;;-9.19;63.23;102321.52;1700478;84;21233;-56
2023/01/09 01:18:37;;;;;;;43.60;19.30;;;;;;;-9.30;63.14;102312.29;1728743;82;21193;-56
2023/01/09 01:21:42;;;;;;;35.60;18.10;;;;;;;-9.35;63.48;102316.72;1694749;84;21219;-56
2023/01/09 01:24:49;;;;;;;42.90;18.82;;;;;;;-9.35;63.48;102316.72;1700279;84;21245;-56
2023/01/09 01:27:55;;;;;;;39.75;19.50;;;;;;;-9.33;63.54;102308.32;1736635;82;21252;-54
2023/01/09 01:31:03;;;;;;;39.53;18.57;;;;;;;-9.29;63.62;102307.87;1694744;84;21216;-56
2023/01/09 01:34:10;;;;;;;38.23;19.20;;;;;;;-9.27;63.54;102283.58;1679903;84;21214;-57
2023/01/09 01:37:17;;;;;;;36.30;19.20;;;;;;;-9.27;63.54;102283.58;1736272;82;21205;-55
2023/01/09 01:40:24;;;;;;;46.25;20.17;;;;;;;-9.32;63.43;102288.44;1705453;84;21246;-56
2023/01/09 01:43:30;;;;;;;48.55;21.23;;;;;;;-9.36;63.37;102275.20;1721222;83;21280;-56
2023/01/09 01:46:38;;;;;;;38.80;19.62;;;;;;;-9.31;63.56;102275.60;1765538;81;21247;-56
2023/01/09 01:49:44;;;;;;;40.88;19.23;;;;;;;-9.29;63.59;102275.59;1695251;83;21196;-56
2023/01/09 01:52:54;;;;;;;36.03;16.75;;;;;;;-9.29;63.42;102280.91;1700487;84;21233;-56
2023/01/09 01:56:16;;;;;;;40.00;19.87;;;;;;;-9.27;63.59;102291.06;1736077;81;21193;-56
2023/01/09 01:59:36;;;;;;;41.83;19.37;;;;;;;-9.37;63.44;102282.73;1718150;80;21269;-56
2023/01/09 02:02:44;;;;;;;42.78;20.30;;;;;;;-9.38;63.42;102283.59;1770849;80;21254;-56
2023/01/09 02:05:51;;;;;;;44.10;19.42;;;;;;;-9.45;63.42;102282.73;1770957;81;21205;-56
2023/01/09 02:08:58;;;;;;;44.55;19.77;;;;;;;-9.43;63.51;102276.09;1770867;81;21169;-55
2023/01/09 02:12:05;;;;;;;46.75;20.23;;;;;;;-9.43;63.57;102278.74;1770885;81;21232;-56
2023/01/09 02:15:16;;;;;;;46.75;20.50;;;;;;;-9.37;63.79;102269.47;1770938;81;22032;-55
2023/01/09 02:19:00;;;;;;;44.35;19.70;;;;;;;-9.31;63.81;102258.38;1771060;81;21221;-55
2023/01/09 02:22:28;;;;;;;50.65;19.17;;;;;;;-9.32;63.86;102246.45;1770885;81;21232;-55
2023/01/09 02:26:27;;;;;;;39.73;18.30;;;;;;;-9.32;63.86;102246.45;1770949;80;21244;-55
2023/01/09 02:29:50;;;;;;;44.03;19.20;;;;;;;-9.37;63.62;102238.99;1770835;80;21196;-56
2023/01/09 02:33:13;;;;;;;43.63;19.50;;;;;;;-9.47;63.52;102235.49;1770961;81;21268;-57
2023/01/09 02:36:26;;;;;;;43.33;18.65;;;;;;;-9.55;63.49;102237.72;1770949;81;21209;-56
2023/01/09 02:39:40;;;;;;;37.45;18.92;;;;;;;-9.57;63.57;102228.88;1770899;80;21204;-56
2023/01/09 02:42:47;;;;;;;40.17;19.27;;;;;;;-9.60;63.58;102235.52;1770917;81;21220;-57
2023/01/09 02:45:47;;;;;;;44.33;19.77;;;;;;;-9.55;64.11;102250.97;1770902;80;21188;-55
2023/01/09 02:48:53;;;;;;;37.55;18.65;;;;;;;-9.55;64.11;102250.97;1771000;81;21180;-55
2023/01/09 02:52:05;;;;;;;38.50;17.77;;;;;;;-9.51;63.83;102245.65;1770884;81;21216;-56
2023/01/09 02:55:22;;;;;;;40.43;17.92;;;;;;;-9.54;63.65;102243.02;1770880;81;21753;-56
2023/01/09 02:59:03;;;;;;;40.52;17.57;;;;;;;-9.55;63.43;102243.91;1770920;80;21275;-56
2023/01/09 03:02:35;;;;;;;40.00;16.65;;;;;;;-9.55;63.43;102243.91;1699921;84;21214;-56
2023/01/09 03:05:51;;;;;;;38.15;18.82;;;;;;;-9.51;63.65;102235.48;1691868;84;21230;-55
2023/01/09 03:09:02;;;;;;;43.00;19.55;;;;;;;-9.52;63.61;102226.67;1723131;82;21317;-56
2023/01/09 03:12:23;;;;;;;41.33;18.10;;;;;;;-9.52;63.60;102233.30;1759881;81;21256;-55
2023/01/09 03:15:32;;;;;;;36.95;18.17;;;;;;;-9.59;63.46;102231.97;1722777;83;21218;-56
2023/01/09 03:18:39;;;;;;;38.70;17.98;;;;;;;-9.63;63.47;102210.36;1722894;83;21186;-55
2023/01/09 03:21:45;;;;;;;41.18;17.67;;;;;;;-9.63;63.51;102216.98;1722739;83;21363;-55
2023/01/09 03:24:51;;;;;;;38.48;17.67;;;;;;;-9.65;63.50;102220.97;1722807;83;21186;-56
2023/01/09 03:28:01;;;;;;;39.23;17.15;;;;;;;-9.69;63.52;102216.55;1722796;83;21245;-56
2023/01/09 03:31:06;;;;;;;37.00;16.90;;;;;;;-9.77;63.47;102214.40;1723049;83;21213;-56
2023/01/09 03:34:13;;;;;;;40.03;18.20;;;;;;;-9.77;63.47;102214.40;1723009;83;21230;-55
2023/01/09 03:37:19;;;;;;;37.90;16.95;;;;;;;-9.80;63.49;102226.30;1722907;82;21225;-56
2023/01/09 03:40:26;;;;;;;34.50;17.57;;;;;;;-9.80;63.56;102221.00;1723113;82;21217;-55
2023/01/09 03:43:32;;;;;;;47.03;18.85;;;;;;;-9.80;63.51;102220.14;1722895;83;21226;-55
2023/01/09 03:46:39;;;;;;;39.53;18.57;;;;;;;-9.81;63.50;102223.66;1722861;83;21233;-56
2023/01/09 03:49:45;;;;;;;35.28;17.65;;;;;;;-9.79;63.52;102213.95;1722928;82;21245;-56
2023/01/09 03:52:52;;;;;;;39.58;18.25;;;;;;;-9.81;63.40;102218.36;1723043;82;21285;-56
2023/01/09 03:56:03;;;;;;;40.23;17.57;;;;;;;-9.85;63.33;102220.59;1723358;83;21233;-56
2023/01/09 03:59:08;;;;;;;40.30;17.77;;;;;;;-9.85;63.33;102220.59;1706397;83;21190;-57
2023/01/09 04:02:13;;;;;;;43.42;18.45;;;;;;;-9.88;63.38;102220.17;1725611;78;21222;-55
2023/01/09 04:05:18;;;;;;;34.95;16.73;;;;;;;-9.89;63.35;102221.47;1722969;83;21213;-56
2023/01/09 04:08:26;;;;;;;44.55;17.20;;;;;;;-9.89;63.35;102221.47;1722813;83;21233;-56
2023/01/09 04:11:34;;;;;;;41.50;18.77;;;;;;;-9.86;63.56;102224.99;1722744;83;21221;-56
2023/01/09 04:14:39;;;;;;;42.20;18.77;;;;;;;-9.85;63.52;102229.86;1722968;83;21213;-56
2023/01/09 04:17:47;;;;;;;35.73;17.12;;;;;;;-9.88;63.48;102225.90;1722769;83;21225;-55
2023/01/09 04:20:55;;;;;;;42.73;17.62;;;;;;;-9.82;63.65;102218.82;1724121;82;21202;-56
2023/01/09 04:24:01;;;;;;;36.50;15.93;;;;;;;-9.73;63.74;102218.78;1723016;82;21209;-57
2023/01/09 04:27:08;;;;;;;43.05;19.00;;;;;;;-9.72;63.64;102219.67;1708755;82;21320;-56
2023/01/09 04:30:16;;;;;;;40.70;17.62;;;;;;;-9.75;63.69;102219.69;1738411;82;21205;-57
2023/01/09 04:33:21;;;;;;;48.58;20.12;;;;;;;-9.70;63.81;102228.48;1705698;82;21217;-57
2023/01/09 04:36:26;;;;;;;48.33;19.70;;;;;;;-9.68;63.84;102220.98;1733942;81;21213;-57
2023/01/09 04:39:31;;;;;;;43.90;19.87;;;;;;;-9.64;63.82;102220.07;1698928;84;21221;-57
2023/01/09 04:42:39;;;;;;;42.53;19.92;;;;;;;-9.65;64.04;102220.08;1722680;83;21284;-56
2023/01/09 04:45:45;;;;;;;36.58;17.45;;;;;;;-9.63;63.75;102217.88;1700563;84;21217;-55
2023/01/09 04:48:51;;;;;;;40.65;18.60;;;;;;;-9.65;63.72;102223.62;1709689;84;21233;-56
2023/01/09 04:51:59;;;;;;;45.48;20.92;;;;;;;-9.72;63.61;102214.38;1723061;83;21232;-56
2023/01/09 04:55:04;;;;;;;47.33;20.00;;;;;;;-9.76;63.70;102213.93;1702371;83;21237;-56
2023/01/09 04:58:09;;;;;;;47.15;19.75;;;;;;;-9.73;63.78;102210.84;1709291;83;21201;-56
2023/01/09 05:01:16;;;;;;;45.25;19.23;;;;;;;-9.70;63.79;102211.26;1723052;83;21186;-56
2023/01/09 05:04:21;;;;;;;41.90;19.30;;;;;;;-9.67;63.80;102202.01;1700131;84;21276;-56
2023/01/09 05:07:27;;;;;;;36.95;18.57;;;;;;;-9.68;63.75;102205.52;1722517;82;21240;-55
2023/01/09 05:10:33;;;;;;;43.63;19.05;;;;;;;-9.73;63.56;102217.89;1762378;81;21217;-56
2023/01/09 05:13:38;;;;;;;44.98;19.82;;;;;;;-9.78;63.49;102224.53;1706783;84;21786;-56
2023/01/09 05:16:44;;;;;;;39.40;18.37;;;;;;;-9.77;63.53;102218.80;1722405;83;21217;-55
2023/01/09 05:19:50;;;;;;;44.42;19.62;;;;;;;-9.79;63.53;102224.55;1759642;81;21201;-56
2023/01/09 05:22:57;;;;;;;45.05;20.72;;;;;;;-9.79;63.53;102224.55;1707325;84;21393;-56
2023/01/09 05:26:03;;;;;;;37.83;19.17;;;;;;;-9.76;63.65;102211.28;1723405;82;21359;-58
2023/01/09 05:29:11;;;;;;;39.08;17.92;;;;;;;-9.70;63.79;102208.17;1680743;85;21235;-57
2023/01/09 05:32:16;;;;;;;41.70;19.10;;;;;;;-9.64;63.91;102210.80;1692641;85;21233;-56
2023/01/09 05:35:23;;;;;;;37.23;18.20;;;;;;;-9.46;64.29;102201.46;1708493;84;21698;-56
2023/01/09 05:38:29;;;;;;;34.25;15.88;;;;;;;-9.46;64.29;102201.46;1759480;81;21292;-57
2023/01/09 05:41:35;;;;;;;36.88;16.32;;;;;;;-9.38;64.17;102198.77;1706929;84;21217;-57
2023/01/09 05:44:41;;;;;;;48.10;18.85;;;;;;;-9.41;63.90;102206.73;1706544;83;21297;-56
2023/01/09 05:47:46;;;;;;;42.00;20.45;;;;;;;-9.50;63.72;102210.77;1759904;81;21355;-57
2023/01/09 05:50:54;;;;;;;40.43;17.45;;;;;;;-9.50;63.77;102208.97;1691093;84;21289;-57
2023/01/09 05:54:01;;;;;;;37.60;17.77;;;;;;;-9.41;63.58;102219.99;1684901;84;21221;-56
2023/01/09 05:57:08;;;;;;;35.15;17.45;;;;;;;-9.41;63.58;102219.99;1667955;83;21324;-57
2023/01/09 06:00:16;;;;;;;37.05;16.62;;;;;;;-9.35;63.83;102206.70;1697628;84;21281;-57
2023/01/09 06:03:22;;;;;;;34.65;15.35;;;;;;;-9.12;63.59;102190.69;1700725;80;21830;-57
2023/01/09 06:06:30;;;;;;;40.20;16.37;;;;;;;-9.12;63.59;102190.69;1720920;81;21567;-57
2023/01/09 06:09:36;;;;;;;32.73;15.85;;;;;;;-8.95;63.74;102181.73;1691991;83;21604;-58
2023/01/09 06:12:47;;;;;;;32.63;14.75;;;;;;;-8.95;63.74;102181.73;1700603;83;21261;-56
2023/01/09 06:15:48;;;;;;;34.33;16.87;;;;;;;-8.80;64.00;102195.34;1752471;80;21196;-55
2023/01/09 06:18:41;;;;;;;36.77;16.42;;;;;;;-8.71;63.86;102205.45;1754797;81;21205;-56
2023/01/09 06:21:28;;;;;;;38.50;16.65;;;;;;;-8.62;63.75;102203.15;1755029;81;21217;-55
2023/01/09 06:24:19;;;;;;;34.30;15.20;;;;;;;-8.57;63.59;102210.64;1755292;81;21236;-56
2023/01/09 06:27:26;;;;;;;31.42;14.23;;;;;;;-8.51;63.70;102195.55;1754685;81;21260;-56
2023/01/09 06:30:32;;;;;;;37.28;15.60;;;;;;;-8.38;63.81;102205.61;1754543;81;21213;-55
2023/01/09 06:33:38;;;;;;;34.13;16.02;;;;;;;-8.36;63.80;102195.43;1754108;81;21221;-56
2023/01/09 06:36:44;;;;;;;30.02;15.68;;;;;;;-8.33;63.73;102195.41;1760284;80;21812;-55
2023/01/09 06:39:52;;;;;;;36.77;15.47;;;;;;;-8.24;63.75;102188.67;1770093;81;21236;-57
2023/01/09 06:43:03;;;;;;;40.00;17.57;;;;;;;-8.22;63.79;102186.85;1772110;79;21783;-52
2023/01/09 06:46:12;;;;;;;31.40;14.95;;;;;;;-8.26;63.76;102179.83;1712216;82;21192;-51
2023/01/09 06:49:27;;;;;;;47.00;19.45;;;;;;;-8.35;63.71;102174.61;1777028;79;21717;-52
2023/01/09 06:52:33;;;;;;;31.37;15.00;;;;;;;-8.46;63.63;102163.20;1736594;81;21261;-57
2023/01/09 06:55:41;;;;;;;39.23;15.28;;;;;;;-8.53;63.65;102153.52;1748354;81;21374;-57
2023/01/09 06:58:48;;;;;;;33.23;15.05;;;;;;;-8.52;63.85;102150.44;1747396;82;21209;-56
2023/01/09 07:01:53;;;;;;;33.55;14.70;;;;;;;-8.51;63.90;102153.08;1747558;82;21771;-57
2023/01/09 07:05:00;;;;;;;36.15;14.43;;;;;;;-8.43;64.09;102149.02;1734239;79;21686;-56
2023/01/09 07:08:07;;;;;;;35.68;15.05;;;;;;;-8.30;64.19;102163.94;1727654;82;21252;-56
2023/01/09 07:11:16;;;;;;;33.83;14.50;;;;;;;-8.14;64.32;102174.82;1745556;80;21237;-56
2023/01/09 07:14:23;;;;;;;29.92;14.28;;;;;;;-7.96;64.46;102178.63;1719060;83;21214;-57
2023/01/09 07:17:28;;;;;;;37.20;15.23;;;;;;;-7.85;64.24;102168.29;1718404;82;21233;-57
2023/01/09 07:20:34;;;;;;;29.87;14.90;;;;;;;-7.73;64.43;102168.61;1707346;82;21283;-56
2023/01/09 07:23:39;;;;;;;33.90;15.23;;;;;;;-7.68;64.42;102169.88;1681314;83;21882;-57
2023/01/09 07:26:45;;;;;;;31.05;14.70;;;;;;;-7.63;64.36;102165.39;1712970;82;21245;-56
2023/01/09 07:29:52;;;;;;;32.33;15.13;;;;;;;-7.49;64.56;102168.31;1731518;81;21205;-57
2023/01/09 07:32:57;;;;;;;34.45;15.32;;;;;;;-7.43;64.37;102174.88;1720020;83;21790;-57
2023/01/09 07:36:03;;;;;;;34.73;15.48;;;;;;;-7.41;64.28;102173.52;1719972;83;21221;-58
2023/01/09 07:39:09;;;;;;;32.33;14.85;;;;;;;-7.42;64.21;102169.12;1719633;83;21217;-56
2023/01/09 07:42:15;;;;;;;36.53;14.93;;;;;;;-7.49;64.06;102176.73;1720063;83;21228;-57
2023/01/09 07:45:20;;;;;;;29.37;14.93;;;;;;;-7.46;64.13;102164.72;1687258;83;21272;-57
2023/01/09 07:48:26;;;;;;;31.27;14.83;;;;;;;-7.38;64.26;102178.80;1735793;82;21224;-57
2023/01/09 07:51:33;;;;;;;30.57;14.28;;;;;;;-7.23;64.41;102189.25;1750168;81;21814;-58
2023/01/09 07:54:32;;;;;;;29.35;14.35;;;;;;;-7.11;64.42;102195.73;1750196;81;21244;-57
2023/01/09 07:57:25;;;;;;;34.15;16.93;;;;;;;-7.08;64.30;102195.68;1750171;82;21348;-58
2023/01/09 08:00:13;;;;;;;30.00;14.58;;;;;;;-7.10;64.17;102194.84;1744400;80;21727;-57
2023/01/09 08:03:05;;;;;;;30.65;15.68;;;;;;;-7.01;64.29;102192.05;1745793;82;21201;-57
2023/01/09 08:05:53;;;;;;;32.45;15.85;;;;;;;-7.00;64.17;102189.80;1765300;80;21730;-53
2023/01/09 08:08:48;;;;;;;38.28;15.63;;;;;;;-6.90;64.31;102193.66;1674583;83;21312;-53
2023/01/09 08:11:43;;;;;;;38.33;15.53;;;;;;;-6.75;64.39;102187.20;1660465;86;21757;-54
2023/01/09 08:14:37;;;;;;;32.17;15.03;;;;;;;-6.61;64.38;102183.91;1671697;84;21794;-54
2023/01/09 08:17:26;;;;;;;32.55;16.05;;;;;;;-6.56;64.27;102186.91;1695729;82;21222;-55
2023/01/09 08:20:22;;;;;;;34.98;16.93;;;;;;;-6.54;64.20;102182.88;1697453;83;21239;-53
2023/01/09 08:23:09;;;;;;;30.37;14.15;;;;;;;-6.46;64.26;102175.64;1700605;82;21207;-53
2023/01/09 08:26:05;;;;;;;29.40;13.65;;;;;;;-6.37;64.22;102186.14;1693585;82;21219;-54
2023/01/09 08:29:21;;;;;;;26.93;13.40;;;;;;;-6.29;64.29;102162.91;1680035;84;21219;-53
2023/01/09 08:32:27;;;;;;;28.45;12.50;;;;;;;-6.19;64.34;102159.19;1697781;83;21315;-54
2023/01/09 08:35:36;;;;;;;29.67;13.80;;;;;;;-6.06;64.37;102151.41;1689477;82;21784;-52
2023/01/09 08:38:41;;;;;;;28.02;14.10;;;;;;;-6.01;64.22;102147.31;1696938;83;21619;-52
2023/01/09 08:48:34;;;;;;;31.50;13.25;;;;;;;-5.73;64.42;102140.05;1698732;83;21227;-53
2023/01/09 08:51:40;;;;;;;32.03;13.38;;;;;;;-5.58;64.33;102130.86;1734851;81;21289;-54
2023/01/09 08:54:44;;;;;;;27.07;12.83;;;;;;;-5.50;64.42;102120.44;1676820;83;21573;-52
2023/01/09 08:57:57;;;;;;;34.13;13.72;;;;;;;-5.41;64.28;102123.38;1671026;84;21213;-54
2023/01/09 09:01:04;;;;;;;31.68;13.40;;;;;;;-5.38;64.28;102119.30;1697169;84;21271;-53
2023/01/09 09:04:10;;;;;;;29.72;13.45;;;;;;;-5.32;64.21;102125.38;1699130;82;21292;-58
2023/01/09 09:07:16;;;;;;;30.08;13.80;;;;;;;-5.32;64.09;102121.37;1712126;81;21760;-57
2023/01/09 09:10:26;;;;;;;34.98;14.83;;;;;;;-5.29;64.13;102123.98;1739219;81;21215;-58
2023/01/09 09:13:34;;;;;;;31.07;12.37;;;;;;;-5.25;64.20;102122.98;1741741;81;21190;-58
2023/01/09 09:16:41;;;;;;;31.70;13.70;;;;;;;-5.27;64.13;102123.50;1754166;81;21216;-58
2023/01/09 09:19:48;;;;;;;30.60;15.15;;;;;;;-5.32;64.00;102113.38;1753981;81;21209;-58
2023/01/09 09:22:55;;;;;;;29.72;12.37;;;;;;;-5.41;63.93;102112.25;1738175;80;21742;-57
2023/01/09 09:26:02;;;;;;;32.38;13.90;;;;;;;-5.40;63.98;102110.44;1729851;81;21196;-59
2023/01/09 09:29:08;;;;;;;25.77;11.65;;;;;;;-5.39;64.03;102111.73;1754885;80;21198;-59
2023/01/09 09:32:14;;;;;;;28.45;12.80;;;;;;;-5.36;64.11;102106.33;1746134;80;21202;-58
2023/01/09 09:35:22;;;;;;;27.93;12.15;;;;;;;-5.27;64.26;102114.59;1725625;83;21201;-58
2023/01/09 09:38:28;;;;;;;24.50;12.53;;;;;;;-5.19;64.26;102101.52;1740881;80;21539;-58
2023/01/09 09:46:11;;;;;;;29.07;13.05;;;;;;;-5.03;64.30;102096.25;1746442;81;21629;-56
2023/01/09 09:49:20;;;;;;;;;;;;;;;-4.97;64.15;102090.75;1752664;80;21225;-58
2023/01/09 09:53:00;;;;;;;28.95;12.25;;;;;;;-4.89;64.26;102078.55;1744058;80;20284;-58
2023/01/09 09:56:06;;;;;;;24.60;10.98;;;;;;;-4.82;64.33;102088.17;1730670;81;21302;-58
2023/01/09 09:59:23;;;;;;;33.15;12.45;;;;;;;-4.85;64.13;102080.21;1754756;81;21185;-57
2023/01/09 10:02:52;;;;;;;28.70;11.97;;;;;;;-4.84;64.11;102086.88;1730209;80;21245;-58
2023/01/09 10:06:05;;;;;;;23.50;10.48;;;;;;;-4.77;64.13;102088.91;1695923;84;21241;-58
2023/01/09 10:09:44;;;;;;;25.85;12.07;;;;;;;-4.72;64.18;102083.89;1679993;81;21641;-57
2023/01/09 10:14:03;;;;;;;23.77;11.40;;;;;;;-4.57;64.31;102076.41;1675580;85;21255;-56
2023/01/09 10:16:28;;;;;;;24.57;12.00;;;;;;;-4.40;64.34;102070.15;1692107;83;21225;-58
2023/01/09 10:19:58;;;;;;;28.32;12.35;;;;;;;-4.31;64.31;102075.27;1669236;86;21221;-57
2023/01/09 10:23:52;;;;;;;24.77;12.07;;;;;;;-4.23;64.28;102073.27;1684553;84;21300;-58
2023/01/09 10:27:01;;;;;;;27.52;11.08;;;;;;;-4.12;64.28;102068.51;1667787;85;21268;-58
2023/01/09 10:30:25;;;;;;;24.07;11.93;;;;;;;-4.04;64.23;102070.51;1695759;84;21249;-58
2023/01/09 10:34:07;;;;;;;26.48;12.03;;;;;;;-3.95;64.14;102074.25;1684958;83;21269;-56
2023/01/09 10:37:40;;;;;;;25.65;11.38;;;;;;;-3.95;64.09;102070.24;1683685;84;21295;-57
2023/01/09 10:40:57;;;;;;;37.33;13.53;;;;;;;-3.93;63.92;102072.42;1697050;84;21210;-57
2023/01/09 10:44:32;;;;;;;26.65;11.15;;;;;;;-3.93;63.95;102065.73;1696980;83;21779;-56
2023/01/09 10:47:45;;;;;;;29.00;12.58;;;;;;;-3.86;63.96;102063.28;1697367;84;21245;-57
2023/01/09 10:50:49;;;;;;;21.90;11.05;;;;;;;-3.82;63.98;102062.29;1697731;84;21290;-57
2023/01/09 10:54:01;;;;;;;21.52;11.40;;;;;;;-3.80;63.94;102057.74;1699251;83;21213;-57
2023/01/09 10:57:15;;;;;;;23.83;10.90;;;;;;;-3.80;63.94;102049.27;1699463;83;21233;-57
2023/01/09 11:00:24;;;;;;;23.60;11.10;;;;;;;-3.79;63.94;102033.63;1700128;83;21257;-58
2023/01/09 11:03:29;;;;;;;28.90;12.47;;;;;;;-3.68;64.07;102041.35;1687493;84;21237;-57
2023/01/09 11:06:56;;;;;;;27.80;14.33;;;;;;;-3.64;64.00;102053.25;1667952;84;21834;-57
2023/01/09 11:10:12;;;;;;;29.23;12.63;;;;;;;-3.64;63.96;102044.34;1706271;82;21782;-57
2023/01/09 11:13:35;;;;;;;22.60;11.20;;;;;;;-3.67;63.91;102033.73;1711717;84;21237;-57
2023/01/09 11:16:42;;;;;;;31.93;12.85;;;;;;;-3.58;64.10;102044.14;1712202;83;21774;-58
2023/01/09 11:19:48;;;;;;;32.23;13.25;;;;;;;-3.55;64.02;102040.06;1666520;85;21806;-57
2023/01/09 11:22:56;;;;;;;25.00;11.48;;;;;;;-3.57;63.91;102041.91;1647854;85;21264;-57
2023/01/09 11:26:04;;;;;;;38.35;14.53;;;;;;;-3.61;63.87;102037.09;1730653;82;21235;-58
2023/01/09 11:29:28;;;;;;;20.30;11.57;;;;;;;-3.54;64.02;102041.81;1712758;82;21821;-57
2023/01/09 11:32:32;;;;;;;21.23;11.12;;;;;;;-3.43;64.11;102044.58;1714339;82;21761;-57
2023/01/09 11:35:40;;;;;;;24.63;10.45;;;;;;;-3.33;64.15;102038.00;1710520;82;21229;-57
2023/01/09 11:39:03;;;;;;;27.62;11.53;;;;;;;-3.23;64.16;102030.09;1733232;80;21769;-58
2023/01/09 11:42:09;;;;;;;27.58;11.10;;;;;;;-3.25;64.03;102019.89;1736428;80;21459;-57
2023/01/09 11:45:26;;;;;;;26.57;12.03;;;;;;;-3.25;64.01;102021.71;1735996;80;21397;-57
2023/01/09 11:48:41;;;;;;;24.02;10.58;;;;;;;-3.23;63.99;102030.09;1725037;81;21217;-57
2023/01/09 11:51:46;;;;;;;24.55;10.70;;;;;;;-3.13;64.06;102033.36;1726576;81;21625;-56
2023/01/09 11:55:05;;;;;;;25.20;12.73;;;;;;;-3.17;63.89;102022.31;1701357;83;21217;-57
2023/01/09 11:58:30;;;;;;;32.17;13.55;;;;;;;-3.12;63.96;102023.93;1699485;84;21207;-56
2023/01/09 12:02:08;;;;;;;20.90;10.35;;;;;;;-3.06;63.90;102030.42;1695287;82;21252;-58
2023/01/09 12:05:41;;;;;;;20.30;11.22;;;;;;;-3.01;63.89;102013.34;1707122;83;21603;-57
2023/01/09 12:09:20;;;;;;;18.87;9.50;;;;;;;-3.02;63.77;102014.25;1714519;83;21232;-55
2023/01/09 12:12:43;;;;;;;32.42;12.25;;;;;;;-3.01;63.85;102008.84;1704773;82;21264;-56
2023/01/09 12:15:54;;;;;;;24.25;10.88;;;;;;;-2.90;63.99;102013.86;1699677;82;21814;-56
2023/01/09 12:19:41;;;;;;;24.40;10.05;;;;;;;-2.82;63.97;102015.33;1706838;82;21237;-55
2023/01/09 12:23:20;;;;;;;24.90;13.13;;;;;;;-2.77;63.95;102020.08;1736119;82;21208;-53
2023/01/09 12:26:39;;;;;;;18.05;9.43;;;;;;;-2.75;63.94;102010.64;1700996;83;21264;-52
2023/01/09 12:30:19;;;;;;;24.47;9.78;;;;;;;-2.66;64.03;102013.89;1744614;80;21284;-52
2023/01/09 12:33:39;;;;;;;26.77;9.85;;;;;;;-2.67;63.90;102008.12;1743503;80;21196;-53
2023/01/09 12:36:58;;;;;;;27.42;9.28;;;;;;;-2.72;63.81;102006.06;1707305;82;21307;-52
2023/01/09 12:40:14;;;;;;;22.62;10.10;;;;;;;-2.77;63.74;102008.47;1691750;82;21276;-52
2023/01/09 12:43:55;;;;;;;27.95;9.73;;;;;;;-2.75;63.81;102005.28;1721844;82;21916;-53
2023/01/09 12:47:38;;;;;;;21.60;10.05;;;;;;;-2.71;63.84;102006.95;1721829;82;21280;-52
2023/01/09 12:51:26;;;;;;;24.00;13.22;;;;;;;-2.67;63.79;102001.42;1705167;82;21766;-53
2023/01/09 12:54:50;;;;;;;23.95;10.80;;;;;;;-2.65;63.83;102001.38;1705791;84;21205;-52
2023/01/09 12:58:04;;;;;;;18.23;9.83;;;;;;;-2.55;63.93;101998.30;1705676;84;21244;-51
2023/01/09 13:01:16;;;;;;;21.30;9.03;;;;;;;-2.49;63.90;101995.89;1677415;84;21272;-52
2023/01/09 13:04:42;;;;;;;15.13;7.67;;;;;;;-2.51;63.81;102001.77;1660181;86;21295;-53
2023/01/09 13:07:57;;;;;;;18.82;8.70;;;;;;;-2.54;63.77;101996.52;1697034;83;21775;-52
2023/01/09 13:11:17;;;;;;;14.35;7.72;;;;;;;-2.51;63.84;102003.98;1752850;77;21267;-52
2023/01/09 13:14:35;;;;;;;13.95;7.55;;;;;;;-2.46;63.76;101993.98;1726042;81;21743;-52
2023/01/09 13:17:50;;;;;;;16.15;8.35;;;;;;;-2.49;63.63;101996.74;1727500;80;21213;-52
2023/01/09 13:21:02;;;;;;;18.30;7.28;;;;;;;-2.58;63.47;101985.47;1787773;78;21648;-53
2023/01/09 13:24:27;;;;;;;20.50;7.65;;;;;;;-2.60;63.53;101971.27;1775169;79;21212;-53
2023/01/09 13:27:33;;;;;;;19.67;7.55;;;;;;;-2.56;63.60;101968.87;1774138;80;21777;-51
2023/01/09 13:31:07;;;;;;;16.48;7.60;;;;;;;-2.52;63.70;101966.03;1725328;81;21765;-51
2023/01/09 13:34:21;;;;;;;18.12;6.95;;;;;;;-2.52;63.71;101957.13;1749527;80;21181;-51
2023/01/09 13:37:37;;;;;;;17.48;8.23;;;;;;;-2.47;63.75;101952.00;1730681;82;21237;-53
2023/01/09 13:40:44;;;;;;;18.15;7.40;;;;;;;-2.45;63.68;101960.88;1730897;80;21775;-53
2023/01/09 13:44:06;;;;;;;15.13;7.30;;;;;;;-2.40;63.69;101968.73;1769518;79;21185;-54
2023/01/09 13:47:10;;;;;;;15.13;7.12;;;;;;;-2.37;63.69;101970.85;1784733;79;21244;-54
2023/01/09 13:50:29;;;;;;;21.65;7.12;;;;;;;-2.41;63.56;101963.83;1732853;80;21335;-53
2023/01/09 13:53:39;;;;;;;14.55;7.30;;;;;;;-2.52;63.44;101954.45;1700978;83;21619;-53
2023/01/09 13:57:25;;;;;;;14.45;7.12;;;;;;;-2.48;63.63;101960.98;1742109;81;21272;-55
2023/01/09 14:00:46;;;;;;;16.05;7.80;;;;;;;-2.45;63.64;101958.19;1732798;79;21271;-53
2023/01/09 14:03:52;;;;;;;15.70;7.72;;;;;;;-2.43;63.71;101952.77;1755855;81;21213;-52
2023/01/09 14:07:21;;;;;;;14.15;6.58;;;;;;;-2.44;63.65;101955.05;1721122;81;21186;-52
2023/01/09 14:10:38;;;;;;;17.30;7.62;;;;;;;-2.40;63.70;101965.60;1755887;81;21264;-52
2023/01/09 14:13:49;;;;;;;17.67;7.92;;;;;;;-2.40;63.61;101967.41;1749870;82;21788;-52
2023/01/09 14:16:55;;;;;;;18.92;7.45;;;;;;;-2.38;63.68;101961.53;1739584;81;21249;-53
2023/01/09 14:20:03;;;;;;;16.75;7.95;;;;;;;-2.40;63.59;101967.41;1751439;82;21205;-52
2023/01/09 14:23:09;;;;;;;16.32;7.08;;;;;;;-2.38;63.65;101962.37;1751368;81;21350;-52
2023/01/09 14:26:33;;;;;;;18.37;7.03;;;;;;;-2.34;63.65;101964.03;1752179;81;21272;-53
2023/01/09 14:29:49;;;;;;;22.42;7.97;;;;;;;-2.33;63.60;101959.55;1751962;82;21201;-53
2023/01/09 14:33:26;;;;;;;14.35;7.62;;;;;;;-2.34;63.65;101957.78;1747401;80;21233;-53
2023/01/09 14:36:32;;;;;;;14.68;7.67;;;;;;;-2.34;63.62;101959.13;1732595;80;21727;-53
2023/01/09 14:39:38;;;;;;;14.03;7.10;;;;;;;-2.33;63.63;101956.39;1727154;82;21197;-53
2023/01/09 14:42:46;;;;;;;16.85;8.78;;;;;;;-2.33;63.65;101952.36;1739700;82;21411;-53
2023/01/09 14:45:54;;;;;;;13.03;6.65;;;;;;;-2.30;63.70;101955.42;1752620;82;21347;-52